Time;durP1;ratioP1;P1;durP2;ratioP2;P2;SDS_P1;SDS_P2;PMS_P1;PMS_P2;Temp;Humidity;BMP_temperature;BMP_pressure;BME280_temperature;BME280_humidity;BME280_pressure;Samples;Min_cycle;Max_cycle;Signal;HPM_P1;HPM_P2
2024/03/08 00:02:15;;;;;;;20.77;16.17;;;;;;;;;;5151311;27;20133;-62
2024/03/08 00:04:42;;;;;;;20.48;16.05;;;;;;;;;;5137988;27;20058;-62
2024/03/08 00:07:08;;;;;;;20.70;15.35;;;;;;;;;;5152013;27;20019;-62
2024/03/08 00:09:34;;;;;;;20.52;15.32;;;;;;;;;;5141837;27;20326;-62
2024/03/08 00:12:00;;;;;;;20.83;15.68;;;;;;;;;;5136136;27;20022;-62
2024/03/08 00:14:26;;;;;;;19.30;15.80;;;;;;;;;;5155531;27;20038;-62
2024/03/08 00:16:54;;;;;;;22.33;16.90;;;;;;;;;;5126960;27;20053;-61
2024/03/08 00:19:20;;;;;;;23.58;16.45;;;;;;;;;;5147962;27;20027;-62
2024/03/08 00:21:46;;;;;;;21.95;16.83;;;;;;;;;;5147551;27;20023;-62
2024/03/08 00:24:12;;;;;;;26.38;16.77;;;;;;;;;;5149345;27;20031;-62
2024/03/08 00:26:38;;;;;;;19.25;16.02;;;;;;;;;;5123259;27;20023;-62
2024/03/08 00:29:07;;;;;;;23.80;17.98;;;;;;;;;;5147815;27;20023;-62
2024/03/08 00:31:33;;;;;;;24.15;16.35;;;;;;;;;;5150517;27;20079;-62
2024/03/08 00:33:59;;;;;;;25.17;17.38;;;;;;;;;;5152689;27;20026;-62
2024/03/08 00:36:26;;;;;;;22.88;17.48;;;;;;;;;;5146881;27;20046;-62
2024/03/08 00:38:52;;;;;;;24.88;17.90;;;;;;;;;;5148766;27;20019;-62
2024/03/08 00:41:18;;;;;;;26.38;18.20;;;;;;;;;;5143261;27;20467;-62
2024/03/08 00:43:47;;;;;;;26.08;19.50;;;;;;;;;;5153295;27;20404;-62
2024/03/08 00:46:15;;;;;;;24.10;18.83;;;;;;;;;;5140116;27;20400;-62
2024/03/08 00:48:43;;;;;;;22.10;17.92;;;;;;;;;;5144880;27;20083;-62
2024/03/08 00:51:09;;;;;;;25.20;16.73;;;;;;;;;;5147136;27;20732;-62
2024/03/08 00:53:35;;;;;;;24.00;18.30;;;;;;;;;;5154728;27;20126;-62
2024/03/08 00:56:01;;;;;;;23.45;18.05;;;;;;;;;;5153075;27;20027;-62
2024/03/08 00:58:28;;;;;;;22.13;17.50;;;;;;;;;;5154471;27;20033;-62
2024/03/08 01:00:54;;;;;;;26.23;18.45;;;;;;;;;;5152086;27;20375;-62
2024/03/08 01:03:20;;;;;;;22.88;17.08;;;;;;;;;;5152204;27;20023;-61
2024/03/08 01:05:46;;;;;;;23.92;18.08;;;;;;;;;;5144316;27;20031;-62
2024/03/08 01:08:12;;;;;;;23.58;17.00;;;;;;;;;;5152041;27;20050;-62
2024/03/08 01:10:38;;;;;;;21.25;16.20;;;;;;;;;;5142058;27;20066;-61
2024/03/08 01:13:05;;;;;;;26.15;16.75;;;;;;;;;;5122081;27;20073;-62
2024/03/08 01:15:31;;;;;;;20.63;16.25;;;;;;;;;;5134931;27;20444;-62
2024/03/08 01:17:56;;;;;;;23.48;16.20;;;;;;;;;;5153358;27;20030;-62
2024/03/08 01:20:22;;;;;;;23.88;15.40;;;;;;;;;;5150086;27;20031;-62
2024/03/08 01:22:49;;;;;;;24.30;15.88;;;;;;;;;;5154709;27;20015;-62
2024/03/08 01:25:15;;;;;;;25.52;14.80;;;;;;;;;;5150424;27;20099;-62
2024/03/08 01:33:50;;;;;;;20.55;14.88;;;;;;;;;;5148502;27;20077;-61
2024/03/08 01:36:16;;;;;;;20.95;15.38;;;;;;;;;;5126379;27;20121;-61
2024/03/08 01:38:43;;;;;;;18.63;14.30;;;;;;;;;;5129934;27;20026;-61
2024/03/08 01:41:09;;;;;;;20.85;15.57;;;;;;;;;;5149836;27;20547;-61
2024/03/08 01:43:35;;;;;;;19.08;15.02;;;;;;;;;;5139894;27;20138;-62
2024/03/08 01:46:02;;;;;;;22.95;15.75;;;;;;;;;;5153646;27;20038;-61
2024/03/08 01:48:29;;;;;;;22.63;15.23;;;;;;;;;;5144702;27;20019;-61
2024/03/08 01:50:56;;;;;;;20.95;14.65;;;;;;;;;;5150390;27;20030;-61
2024/03/08 01:53:22;;;;;;;22.35;15.27;;;;;;;;;;5153129;27;20031;-62
2024/03/08 01:55:49;;;;;;;20.65;15.15;;;;;;;;;;5149781;27;20019;-61
2024/03/08 01:58:15;;;;;;;23.08;15.32;;;;;;;;;;5153666;27;20593;-61
2024/03/08 02:00:45;;;;;;;20.95;14.23;;;;;;;;;;5139248;27;20027;-61
2024/03/08 02:03:11;;;;;;;21.42;14.95;;;;;;;;;;5154065;27;20054;-62
2024/03/08 02:05:40;;;;;;;22.73;14.80;;;;;;;;;;5130519;27;20023;-62
2024/03/08 02:08:16;;;;;;;19.50;13.75;;;;;;;;;;5153880;27;20332;-62
2024/03/08 02:10:42;;;;;;;20.95;15.98;;;;;;;;;;5141849;27;20023;-61
2024/03/08 02:13:09;;;;;;;23.17;14.88;;;;;;;;;;5151325;27;20492;-61
2024/03/08 02:16:04;;;;;;;21.92;15.23;;;;;;;;;;5150755;27;20030;-62
2024/03/08 02:18:30;;;;;;;;;;;;;;;;;;5140029;27;20118;-61
2024/03/08 02:20:57;;;;;;;18.27;14.32;;;;;;;;;;5145270;27;19961;-61
2024/03/08 02:23:26;;;;;;;20.58;15.43;;;;;;;;;;5156924;27;20080;-61
2024/03/08 02:25:53;;;;;;;20.02;15.45;;;;;;;;;;5141470;27;20030;-61
2024/03/08 02:28:19;;;;;;;23.65;15.70;;;;;;;;;;5146988;27;20118;-61
2024/03/08 02:30:49;;;;;;;21.63;15.93;;;;;;;;;;5138039;27;20563;-62
2024/03/08 02:33:19;;;;;;;26.52;16.30;;;;;;;;;;5140440;27;20106;-62
2024/03/08 02:35:45;;;;;;;22.25;14.93;;;;;;;;;;5154901;27;20035;-61
2024/03/08 02:38:12;;;;;;;25.27;16.30;;;;;;;;;;5154566;27;20102;-62
2024/03/08 02:40:38;;;;;;;21.83;15.82;;;;;;;;;;5153102;27;20019;-61
2024/03/08 02:43:04;;;;;;;21.45;16.15;;;;;;;;;;5148634;27;20037;-61
2024/03/08 02:45:31;;;;;;;22.52;16.02;;;;;;;;;;5132981;27;20046;-61
2024/03/08 02:47:57;;;;;;;20.55;15.10;;;;;;;;;;5140687;27;20029;-61
2024/03/08 02:50:23;;;;;;;22.00;16.60;;;;;;;;;;5141938;27;20041;-61
2024/03/08 02:52:49;;;;;;;22.38;15.07;;;;;;;;;;5155719;27;20101;-61
2024/03/08 02:55:16;;;;;;;23.55;17.10;;;;;;;;;;5150907;27;20042;-61
2024/03/08 02:57:43;;;;;;;22.98;17.33;;;;;;;;;;5124493;27;20046;-61
2024/03/08 03:00:09;;;;;;;23.58;16.98;;;;;;;;;;5150052;27;20023;-61
2024/03/08 03:02:36;;;;;;;24.85;17.30;;;;;;;;;;5146758;27;20033;-61
2024/03/08 03:05:06;;;;;;;25.63;17.55;;;;;;;;;;5156312;27;20117;-61
2024/03/08 03:07:34;;;;;;;22.45;17.45;;;;;;;;;;5156760;27;20010;-61
2024/03/08 03:10:00;;;;;;;27.95;18.88;;;;;;;;;;5156757;27;20027;-61
2024/03/08 03:12:30;;;;;;;26.83;18.35;;;;;;;;;;5137603;27;20075;-61
2024/03/08 03:14:57;;;;;;;25.02;18.02;;;;;;;;;;5151398;27;20098;-61
2024/03/08 03:17:26;;;;;;;25.90;17.42;;;;;;;;;;5152719;27;20027;-61
2024/03/08 03:19:52;;;;;;;23.27;18.13;;;;;;;;;;5154622;27;20480;-61
2024/03/08 03:22:18;;;;;;;26.20;17.85;;;;;;;;;;5150178;27;20027;-61
2024/03/08 03:24:46;;;;;;;26.98;17.67;;;;;;;;;;5155644;27;20042;-61
2024/03/08 03:27:12;;;;;;;23.55;17.98;;;;;;;;;;5139787;27;20027;-61
2024/03/08 03:29:49;;;;;;;25.23;18.40;;;;;;;;;;5147676;27;20070;-61
2024/03/08 03:32:16;;;;;;;27.70;18.80;;;;;;;;;;5148071;27;20495;-61
2024/03/08 03:34:43;;;;;;;23.98;18.52;;;;;;;;;;5151920;27;20019;-61
2024/03/08 03:37:12;;;;;;;26.85;18.58;;;;;;;;;;5152155;27;20015;-61
2024/03/08 03:39:48;;;;;;;25.20;19.02;;;;;;;;;;5129970;27;20035;-61
2024/03/08 03:42:16;;;;;;;23.98;18.58;;;;;;;;;;5148638;27;20022;-60
2024/03/08 03:44:43;;;;;;;33.47;19.83;;;;;;;;;;5146286;27;20156;-61
2024/03/08 03:47:09;;;;;;;25.70;19.67;;;;;;;;;;5155320;27;20031;-61
2024/03/08 03:49:35;;;;;;;26.50;18.83;;;;;;;;;;5147463;27;20033;-61
2024/03/08 03:52:01;;;;;;;24.00;19.33;;;;;;;;;;5136605;27;20076;-61
2024/03/08 03:54:27;;;;;;;26.75;18.92;;;;;;;;;;5141630;27;20053;-61
2024/03/08 03:56:53;;;;;;;25.08;18.05;;;;;;;;;;5156093;27;20029;-61
2024/03/08 03:59:19;;;;;;;27.00;20.13;;;;;;;;;;5154484;27;20046;-61
2024/03/08 04:01:45;;;;;;;29.58;19.42;;;;;;;;;;5146440;27;20515;-61
2024/03/08 04:04:12;;;;;;;27.73;18.95;;;;;;;;;;5148730;27;20137;-62
2024/03/08 04:06:38;;;;;;;28.83;21.23;;;;;;;;;;5155783;27;20102;-62
2024/03/08 04:09:04;;;;;;;30.75;21.33;;;;;;;;;;5144752;27;20110;-62
2024/03/08 04:11:30;;;;;;;26.38;20.73;;;;;;;;;;5147342;27;20015;-61
2024/03/08 04:13:56;;;;;;;32.85;22.00;;;;;;;;;;5155157;27;20121;-61
2024/03/08 04:16:23;;;;;;;30.20;21.13;;;;;;;;;;5153698;27;20023;-60
2024/03/08 04:18:49;;;;;;;29.88;22.15;;;;;;;;;;5136688;27;20156;-60
2024/03/08 04:21:15;;;;;;;34.97;22.40;;;;;;;;;;5142192;27;20059;-61
2024/03/08 04:23:48;;;;;;;29.77;22.10;;;;;;;;;;5136036;27;20079;-61
2024/03/08 04:26:14;;;;;;;34.22;20.88;;;;;;;;;;5154947;27;20031;-61
2024/03/08 04:28:40;;;;;;;30.65;20.70;;;;;;;;;;5142565;27;20030;-61
2024/03/08 04:31:06;;;;;;;29.83;21.90;;;;;;;;;;5151095;27;20023;-61
2024/03/08 04:33:32;;;;;;;30.27;21.88;;;;;;;;;;5154355;27;20094;-61
2024/03/08 04:36:04;;;;;;;33.22;22.58;;;;;;;;;;5146596;27;20031;-61
2024/03/08 04:38:30;;;;;;;29.63;21.50;;;;;;;;;;5153939;27;20050;-61
2024/03/08 04:41:01;;;;;;;28.83;21.45;;;;;;;;;;5143602;27;20023;-62
2024/03/08 04:43:30;;;;;;;30.17;20.67;;;;;;;;;;5149598;27;20038;-61
2024/03/08 04:45:56;;;;;;;29.25;21.02;;;;;;;;;;5150564;27;20050;-61
2024/03/08 04:48:22;;;;;;;27.63;20.25;;;;;;;;;;5155340;27;20552;-61
2024/03/08 04:50:48;;;;;;;28.10;19.75;;;;;;;;;;5154801;27;20031;-61
2024/03/08 04:53:14;;;;;;;30.83;21.33;;;;;;;;;;5148033;27;20038;-61
2024/03/08 04:55:40;;;;;;;28.15;20.65;;;;;;;;;;5152453;27;20071;-61
2024/03/08 04:58:06;;;;;;;31.05;20.83;;;;;;;;;;5135451;27;20106;-61
2024/03/08 05:00:32;;;;;;;30.73;21.00;;;;;;;;;;5153328;27;20497;-61
2024/03/08 05:02:59;;;;;;;28.42;20.10;;;;;;;;;;5123857;27;20045;-61
2024/03/08 05:05:26;;;;;;;27.45;20.23;;;;;;;;;;5135043;27;20031;-61
2024/03/08 05:07:52;;;;;;;29.90;20.15;;;;;;;;;;5149649;27;20025;-62
2024/03/08 05:13:21;;;;;;;29.42;21.52;;;;;;;;;;5150770;27;20059;-62
2024/03/08 05:15:50;;;;;;;27.38;19.92;;;;;;;;;;5150038;27;20392;-62
2024/03/08 05:18:16;;;;;;;28.88;21.00;;;;;;;;;;5144397;27;20015;-62
2024/03/08 05:20:42;;;;;;;28.92;20.67;;;;;;;;;;5154282;27;20019;-61
2024/03/08 05:23:09;;;;;;;30.83;20.88;;;;;;;;;;5154044;27;20018;-62
2024/03/08 05:25:36;;;;;;;26.05;19.45;;;;;;;;;;5148301;27;20524;-61
2024/03/08 05:28:04;;;;;;;31.60;21.17;;;;;;;;;;5146147;27;20022;-62
2024/03/08 05:30:30;;;;;;;27.00;19.08;;;;;;;;;;5152730;27;20030;-61
2024/03/08 05:32:56;;;;;;;26.00;19.00;;;;;;;;;;5147415;27;20030;-62
2024/03/08 05:35:22;;;;;;;27.52;19.00;;;;;;;;;;5147274;27;20206;-61
2024/03/08 05:37:48;;;;;;;23.15;17.17;;;;;;;;;;5146821;27;20506;-61
2024/03/08 05:40:15;;;;;;;26.48;18.17;;;;;;;;;;5134418;27;20023;-61
2024/03/08 05:42:41;;;;;;;24.60;17.40;;;;;;;;;;5151763;27;20047;-61
2024/03/08 05:45:07;;;;;;;21.35;16.08;;;;;;;;;;5148935;27;20034;-61
2024/03/08 05:47:34;;;;;;;21.17;15.65;;;;;;;;;;5153889;27;20023;-61
2024/03/08 05:50:00;;;;;;;23.98;15.70;;;;;;;;;;5153859;27;20159;-61
2024/03/08 05:52:26;;;;;;;21.17;15.73;;;;;;;;;;5133005;27;20503;-62
2024/03/08 05:54:52;;;;;;;22.08;14.77;;;;;;;;;;5145706;27;20030;-62
2024/03/08 05:57:27;;;;;;;18.88;14.77;;;;;;;;;;5153584;27;20049;-61
2024/03/08 05:59:53;;;;;;;21.23;15.20;;;;;;;;;;5128940;28;20020;-61
2024/03/08 06:02:19;;;;;;;18.92;13.65;;;;;;;;;;5147875;27;20023;-61
2024/03/08 06:04:47;;;;;;;19.17;14.73;;;;;;;;;;5149359;27;20341;-62
2024/03/08 06:07:13;;;;;;;20.83;14.70;;;;;;;;;;5128224;27;20018;-62
2024/03/08 06:09:39;;;;;;;22.13;15.50;;;;;;;;;;5153452;27;20019;-62
2024/03/08 06:12:06;;;;;;;22.92;15.85;;;;;;;;;;5131421;27;20065;-62
2024/03/08 06:14:32;;;;;;;23.63;15.27;;;;;;;;;;5147837;27;20027;-62
2024/03/08 06:16:58;;;;;;;20.08;15.57;;;;;;;;;;5153098;27;20118;-62
2024/03/08 06:19:24;;;;;;;21.58;15.93;;;;;;;;;;5149085;27;20424;-62
2024/03/08 06:21:50;;;;;;;21.80;14.63;;;;;;;;;;5134226;27;20477;-62
2024/03/08 06:24:17;;;;;;;22.98;14.65;;;;;;;;;;5141930;27;20054;-62
2024/03/08 06:26:43;;;;;;;22.02;14.85;;;;;;;;;;5152591;27;20018;-62
2024/03/08 06:29:09;;;;;;;21.23;15.73;;;;;;;;;;5142867;27;20027;-63
2024/03/08 06:31:38;;;;;;;22.85;14.95;;;;;;;;;;5152752;27;20114;-63
2024/03/08 06:34:07;;;;;;;19.35;14.57;;;;;;;;;;5153573;27;20011;-63
2024/03/08 06:36:34;;;;;;;20.52;14.63;;;;;;;;;;5133011;27;20027;-62
2024/03/08 06:39:00;;;;;;;22.27;14.90;;;;;;;;;;5142613;27;20027;-63
2024/03/08 06:41:26;;;;;;;20.55;13.70;;;;;;;;;;5148309;27;20019;-63
2024/03/08 06:43:57;;;;;;;21.15;13.98;;;;;;;;;;5138654;27;20480;-62
2024/03/08 06:46:23;;;;;;;20.73;13.25;;;;;;;;;;5146950;27;20429;-63
2024/03/08 06:48:49;;;;;;;21.85;14.20;;;;;;;;;;5152638;27;20050;-63
2024/03/08 06:51:15;;;;;;;18.67;14.35;;;;;;;;;;5150703;27;20046;-63
2024/03/08 06:53:41;;;;;;;19.10;13.70;;;;;;;;;;5150342;27;20023;-63
2024/03/08 06:56:07;;;;;;;20.80;14.57;;;;;;;;;;5132526;27;20029;-63
2024/03/08 06:58:33;;;;;;;19.67;14.07;;;;;;;;;;5145303;27;20015;-63
2024/03/08 07:01:00;;;;;;;18.92;13.55;;;;;;;;;;5137458;27;20191;-63
2024/03/08 07:03:28;;;;;;;22.13;14.10;;;;;;;;;;5135309;27;20023;-63
2024/03/08 07:05:56;;;;;;;21.38;14.15;;;;;;;;;;5140551;27;20392;-63
2024/03/08 07:08:23;;;;;;;20.00;14.18;;;;;;;;;;5146709;27;20071;-63
2024/03/08 07:10:49;;;;;;;20.52;13.88;;;;;;;;;;5151805;27;20479;-62
2024/03/08 07:13:16;;;;;;;19.15;13.60;;;;;;;;;;5152475;27;20585;-63
2024/03/08 07:15:42;;;;;;;20.25;13.27;;;;;;;;;;5141710;27;20016;-62
2024/03/08 07:18:09;;;;;;;20.65;13.23;;;;;;;;;;5151701;27;20019;-62
2024/03/08 07:20:37;;;;;;;17.30;12.80;;;;;;;;;;5152192;27;20025;-63
2024/03/08 07:23:03;;;;;;;20.20;12.70;;;;;;;;;;5156077;27;20015;-62
2024/03/08 07:25:29;;;;;;;19.40;13.00;;;;;;;;;;5156081;27;20117;-62
2024/03/08 07:27:56;;;;;;;17.92;13.32;;;;;;;;;;5152285;27;20122;-62
2024/03/08 07:33:11;;;;;;;18.08;12.98;;;;;;;;;;5143408;27;20071;-62
2024/03/08 07:35:38;;;;;;;17.08;12.25;;;;;;;;;;5156361;27;20019;-63
2024/03/08 07:38:09;;;;;;;20.80;13.07;;;;;;;;;;5156047;27;20456;-63
2024/03/08 07:40:40;;;;;;;20.55;12.70;;;;;;;;;;5154856;27;20014;-63
2024/03/08 07:43:06;;;;;;;15.98;12.45;;;;;;;;;;5137532;27;20029;-63
2024/03/08 07:45:32;;;;;;;18.52;12.52;;;;;;;;;;5153079;27;20045;-62
2024/03/08 07:47:58;;;;;;;16.67;11.82;;;;;;;;;;5144613;27;20020;-61
2024/03/08 07:50:25;;;;;;;17.23;11.45;;;;;;;;;;5154868;27;20080;-61
2024/03/08 07:52:51;;;;;;;19.35;12.23;;;;;;;;;;5156216;27;20097;-61
2024/03/08 07:55:18;;;;;;;18.95;12.27;;;;;;;;;;5162024;27;20046;-62
2024/03/08 07:57:44;;;;;;;16.35;11.50;;;;;;;;;;5156307;27;20093;-62
2024/03/08 08:00:10;;;;;;;20.23;12.10;;;;;;;;;;5155543;27;20030;-63
2024/03/08 08:02:36;;;;;;;18.27;12.10;;;;;;;;;;5152962;27;20051;-62
2024/03/08 08:05:03;;;;;;;19.73;13.05;;;;;;;;;;5151636;27;20103;-62
2024/03/08 08:07:29;;;;;;;20.63;12.25;;;;;;;;;;5153446;27;20019;-62
2024/03/08 08:09:55;;;;;;;20.80;13.48;;;;;;;;;;5134504;27;20027;-62
2024/03/08 08:12:21;;;;;;;21.65;13.02;;;;;;;;;;5150254;27;20046;-62
2024/03/08 08:14:47;;;;;;;17.30;12.98;;;;;;;;;;5148894;27;20371;-63
2024/03/08 08:17:13;;;;;;;16.63;12.13;;;;;;;;;;5153797;27;20022;-61
2024/03/08 08:19:41;;;;;;;18.77;12.25;;;;;;;;;;5154942;27;20025;-62
2024/03/08 08:22:08;;;;;;;20.80;13.30;;;;;;;;;;5140908;27;20022;-62
2024/03/08 08:24:36;;;;;;;16.75;12.45;;;;;;;;;;5148193;27;20023;-62
2024/03/08 08:27:02;;;;;;;15.57;11.30;;;;;;;;;;5146131;27;20426;-62
2024/03/08 08:29:28;;;;;;;16.08;11.10;;;;;;;;;;5144585;27;20026;-62
2024/03/08 08:31:54;;;;;;;15.98;10.65;;;;;;;;;;5153839;27;20023;-60
2024/03/08 08:34:23;;;;;;;19.75;12.50;;;;;;;;;;5154892;27;20014;-61
2024/03/08 08:36:49;;;;;;;18.58;12.00;;;;;;;;;;5139910;27;20030;-61
2024/03/08 08:39:17;;;;;;;17.85;11.50;;;;;;;;;;5149092;27;20114;-60
2024/03/08 08:41:49;;;;;;;17.88;12.35;;;;;;;;;;5136267;27;20456;-57
2024/03/08 08:44:15;;;;;;;17.50;11.88;;;;;;;;;;5143222;27;20045;-52
2024/03/08 08:46:42;;;;;;;16.77;11.80;;;;;;;;;;5153908;27;20084;-61
2024/03/08 08:49:10;;;;;;;19.20;12.10;;;;;;;;;;5153429;27;20027;-63
2024/03/08 08:51:37;;;;;;;17.10;12.35;;;;;;;;;;5133682;27;20023;-54
2024/03/08 08:54:03;;;;;;;19.75;12.32;;;;;;;;;;5153125;27;20034;-58
2024/03/08 08:56:35;;;;;;;17.42;12.60;;;;;;;;;;5148588;27;20050;-54
2024/03/08 08:59:01;;;;;;;16.75;11.75;;;;;;;;;;5149786;27;20461;-66
2024/03/08 09:01:28;;;;;;;19.15;13.40;;;;;;;;;;5153731;27;20056;-66
2024/03/08 09:03:54;;;;;;;17.75;12.43;;;;;;;;;;5139411;27;20046;-53
2024/03/08 09:06:21;;;;;;;17.70;12.60;;;;;;;;;;5153799;27;20023;-56
2024/03/08 09:08:47;;;;;;;20.38;13.65;;;;;;;;;;5154561;27;20030;-59
2024/03/08 09:11:15;;;;;;;18.25;13.05;;;;;;;;;;5150683;27;20436;-53
2024/03/08 09:13:41;;;;;;;21.70;14.75;;;;;;;;;;5154143;27;20397;-48
2024/03/08 09:16:19;;;;;;;18.48;13.35;;;;;;;;;;5154103;27;20023;-51
2024/03/08 09:18:45;;;;;;;17.42;12.23;;;;;;;;;;5149945;27;20106;-62
2024/03/08 09:21:13;;;;;;;16.98;12.80;;;;;;;;;;5143690;27;20019;-62
2024/03/08 09:23:40;;;;;;;17.55;12.43;;;;;;;;;;5144694;27;20035;-63
2024/03/08 09:26:09;;;;;;;18.55;12.98;;;;;;;;;;5144693;27;20027;-62
2024/03/08 09:28:35;;;;;;;19.73;12.63;;;;;;;;;;5139872;27;20015;-61
2024/03/08 09:31:01;;;;;;;17.25;12.50;;;;;;;;;;5140319;27;20066;-59
2024/03/08 09:33:28;;;;;;;18.67;12.13;;;;;;;;;;5127858;27;20023;-61
2024/03/08 09:35:54;;;;;;;18.75;13.18;;;;;;;;;;5148738;27;20043;-60
2024/03/08 09:38:20;;;;;;;21.88;12.50;;;;;;;;;;5153230;27;20417;-60
2024/03/08 09:40:47;;;;;;;16.83;11.98;;;;;;;;;;5147245;27;20121;-58
2024/03/08 09:43:13;;;;;;;16.50;12.77;;;;;;;;;;5151219;27;20016;-62
2024/03/08 09:45:41;;;;;;;17.10;12.27;;;;;;;;;;5153125;27;20096;-62
2024/03/08 09:48:16;;;;;;;17.60;12.27;;;;;;;;;;5154097;27;20027;-63
2024/03/08 09:50:43;;;;;;;16.52;12.52;;;;;;;;;;5150740;27;20026;-63
2024/03/08 09:53:09;;;;;;;18.98;12.52;;;;;;;;;;5144009;27;20114;-59
2024/03/08 09:55:45;;;;;;;16.25;12.52;;;;;;;;;;5130119;27;20498;-64
2024/03/08 10:00:47;;;;;;;16.13;12.73;;;;;;;;;;5153627;27;20034;-65
2024/03/08 10:03:14;;;;;;;18.52;12.10;;;;;;;;;;5150292;27;20042;-70
2024/03/08 10:05:41;;;;;;;17.92;12.57;;;;;;;;;;5121060;27;20041;-60
2024/03/08 10:08:08;;;;;;;18.30;12.82;;;;;;;;;;5145022;27;20033;-63
2024/03/08 10:10:37;;;;;;;21.83;12.85;;;;;;;;;;5122488;27;20530;-47
2024/03/08 10:13:06;;;;;;;18.02;12.90;;;;;;;;;;5132871;27;20055;-50
2024/03/08 10:15:35;;;;;;;20.13;13.02;;;;;;;;;;5147096;27;20489;-60
2024/03/08 10:18:04;;;;;;;21.58;14.00;;;;;;;;;;5152814;27;20058;-62
2024/03/08 10:20:34;;;;;;;19.88;12.77;;;;;;;;;;5131566;27;20027;-54
2024/03/08 10:23:04;;;;;;;19.55;13.38;;;;;;;;;;5152017;27;21440;-49
2024/03/08 10:25:31;;;;;;;21.50;14.07;;;;;;;;;;5143644;27;20072;-63
2024/03/08 10:27:57;;;;;;;19.80;14.23;;;;;;;;;;5138546;27;20022;-63
2024/03/08 10:30:23;;;;;;;18.95;13.07;;;;;;;;;;5148602;27;20466;-50
2024/03/08 10:32:49;;;;;;;16.55;13.27;;;;;;;;;;5151140;27;20019;-50
2024/03/08 10:35:16;;;;;;;18.45;13.13;;;;;;;;;;5149739;27;20106;-61
2024/03/08 10:37:46;;;;;;;23.95;14.45;;;;;;;;;;5150750;27;20014;-61
2024/03/08 10:40:20;;;;;;;20.67;14.25;;;;;;;;;;5136782;27;20027;-64
2024/03/08 10:42:59;;;;;;;17.08;12.77;;;;;;;;;;5147608;27;20019;-55
2024/03/08 10:45:37;;;;;;;19.00;13.23;;;;;;;;;;5145859;27;20113;-63
2024/03/08 10:48:10;;;;;;;17.88;13.25;;;;;;;;;;5152107;27;20069;-49
2024/03/08 10:50:38;;;;;;;17.33;12.77;;;;;;;;;;5151705;27;20095;-51
2024/03/08 10:53:06;;;;;;;17.92;12.50;;;;;;;;;;5157388;27;20284;-62
2024/03/08 10:55:53;;;;;;;18.38;13.00;;;;;;;;;;5157445;27;20019;-58
2024/03/08 10:58:20;;;;;;;15.98;12.45;;;;;;;;;;5157037;27;20034;-60
2024/03/08 11:00:46;;;;;;;17.33;13.02;;;;;;;;;;5133627;27;20411;-60
2024/03/08 11:03:31;;;;;;;16.13;11.88;;;;;;;;;;5146124;27;20130;-51
2024/03/08 11:05:57;;;;;;;18.02;13.32;;;;;;;;;;5152063;27;20046;-61
2024/03/08 11:08:23;;;;;;;15.93;11.48;;;;;;;;;;5153921;27;20022;-52
2024/03/08 11:10:55;;;;;;;16.95;12.30;;;;;;;;;;5131760;27;20025;-51
2024/03/08 11:13:43;;;;;;;18.05;12.93;;;;;;;;;;5133237;27;20399;-58
2024/03/08 11:16:16;;;;;;;19.05;13.07;;;;;;;;;;5146269;27;20030;-59
2024/03/08 11:18:42;;;;;;;17.23;12.40;;;;;;;;;;5143739;27;20031;-57
2024/03/08 11:21:12;;;;;;;18.92;12.40;;;;;;;;;;5154603;27;20020;-59
2024/03/08 11:23:40;;;;;;;16.23;11.70;;;;;;;;;;5135538;27;20030;-59
2024/03/08 11:26:18;;;;;;;15.48;11.50;;;;;;;;;;5151664;27;20019;-62
2024/03/08 11:28:44;;;;;;;15.05;11.38;;;;;;;;;;5143829;27;20023;-74
2024/03/08 11:31:10;;;;;;;15.38;12.35;;;;;;;;;;5148802;27;20430;-74
2024/03/08 11:33:43;;;;;;;17.08;11.45;;;;;;;;;;5146019;27;20095;-74
2024/03/08 11:36:24;;;;;;;15.75;10.98;;;;;;;;;;5126292;27;20026;-74
2024/03/08 11:38:52;;;;;;;15.35;11.30;;;;;;;;;;5156269;27;20033;-74
2024/03/08 11:41:19;;;;;;;14.40;11.45;;;;;;;;;;5152167;27;20022;-74
2024/03/08 11:43:48;;;;;;;16.48;11.30;;;;;;;;;;5150014;27;20023;-64
2024/03/08 11:46:16;;;;;;;22.55;10.90;;;;;;;;;;5129619;27;20476;-67
2024/03/08 11:48:42;;;;;;;15.98;10.93;;;;;;;;;;5154734;27;20023;-67
2024/03/08 11:51:13;;;;;;;14.32;11.10;;;;;;;;;;5155723;27;20034;-67
2024/03/08 11:53:39;;;;;;;17.60;11.07;;;;;;;;;;5137415;27;20376;-67
2024/03/08 11:56:06;;;;;;;13.73;11.15;;;;;;;;;;5149282;27;20031;-67
2024/03/08 11:58:32;;;;;;;13.32;10.93;;;;;;;;;;5155904;27;20405;-67
2024/03/08 12:01:16;;;;;;;13.82;10.38;;;;;;;;;;5155858;27;20038;-66
2024/03/08 12:03:43;;;;;;;15.63;11.02;;;;;;;;;;5137088;27;20121;-67
2024/03/08 12:06:09;;;;;;;14.20;11.38;;;;;;;;;;5155923;27;20376;-67
2024/03/08 12:08:36;;;;;;;18.75;12.68;;;;;;;;;;5155812;27;20064;-67
2024/03/08 12:11:04;;;;;;;15.35;11.35;;;;;;;;;;5137018;27;20046;-67
2024/03/08 12:13:31;;;;;;;16.00;11.02;;;;;;;;;;5155590;27;20018;-67
2024/03/08 12:16:04;;;;;;;16.83;10.68;;;;;;;;;;5155788;27;20025;-67
2024/03/08 12:18:33;;;;;;;14.00;10.80;;;;;;;;;;5142167;27;20410;-67
2024/03/08 12:21:10;;;;;;;14.27;11.80;;;;;;;;;;5155807;27;20374;-67
2024/03/08 12:23:36;;;;;;;13.88;10.52;;;;;;;;;;5141687;27;20023;-67
2024/03/08 12:26:15;;;;;;;17.02;11.85;;;;;;;;;;5155623;27;20033;-67
2024/03/08 12:28:41;;;;;;;13.77;10.80;;;;;;;;;;5122792;27;20034;-67
2024/03/08 12:31:11;;;;;;;16.92;11.20;;;;;;;;;;5155023;27;20014;-67
2024/03/08 12:33:49;;;;;;;17.63;12.35;;;;;;;;;;5151264;27;20011;-68
2024/03/08 12:36:16;;;;;;;15.63;11.35;;;;;;;;;;5152427;27;20022;-67
2024/03/08 12:38:48;;;;;;;15.80;11.05;;;;;;;;;;5132621;27;20042;-67
2024/03/08 12:41:15;;;;;;;16.70;10.93;;;;;;;;;;5135213;27;20479;-67
2024/03/08 12:43:41;;;;;;;18.00;11.73;;;;;;;;;;5153846;27;20014;-67
2024/03/08 12:46:08;;;;;;;15.48;11.77;;;;;;;;;;5154131;27;20459;-67
2024/03/08 12:48:40;;;;;;;15.50;12.05;;;;;;;;;;5153866;27;20505;-67
2024/03/08 12:54:23;;;;;;;13.50;10.32;;;;;;;;;;5150872;27;20076;-67
2024/03/08 13:02:56;;;;;;;14.63;11.18;;;;;;;;;;5150970;27;20174;-67
2024/03/08 13:05:23;;;;;;;13.43;10.38;;;;;;;;;;5146388;27;20501;-66
2024/03/08 13:07:49;;;;;;;15.65;11.35;;;;;;;;;;5147327;27;20015;-66
2024/03/08 13:10:15;;;;;;;14.38;10.63;;;;;;;;;;5154234;27;20380;-67
2024/03/08 13:12:52;;;;;;;13.93;11.35;;;;;;;;;;5154447;27;20086;-66
2024/03/08 13:15:21;;;;;;;14.75;11.02;;;;;;;;;;5135530;27;20048;-67
2024/03/08 13:17:50;;;;;;;13.63;11.02;;;;;;;;;;5154300;27;20057;-66
2024/03/08 13:20:19;;;;;;;13.85;9.65;;;;;;;;;;5135820;27;20160;-66
2024/03/08 13:22:48;;;;;;;16.88;11.13;;;;;;;;;;5154490;27;20388;-67
2024/03/08 13:25:14;;;;;;;14.75;11.23;;;;;;;;;;5154351;27;20117;-66
2024/03/08 13:27:43;;;;;;;16.25;11.23;;;;;;;;;;5154157;27;20018;-66
2024/03/08 13:30:13;;;;;;;16.35;11.48;;;;;;;;;;5154069;27;20487;-67
2024/03/08 13:32:40;;;;;;;15.13;11.27;;;;;;;;;;5154267;27;20014;-66
2024/03/08 13:35:12;;;;;;;14.88;12.02;;;;;;;;;;5154102;27;20023;-67
2024/03/08 13:37:40;;;;;;;15.00;11.73;;;;;;;;;;5139575;27;20102;-66
2024/03/08 13:40:10;;;;;;;14.95;10.50;;;;;;;;;;5147994;27;20038;-67
2024/03/08 13:42:38;;;;;;;18.23;12.27;;;;;;;;;;5154008;27;20034;-66
2024/03/08 13:45:04;;;;;;;15.25;12.15;;;;;;;;;;5153651;27;20042;-66
2024/03/08 13:47:31;;;;;;;13.73;11.57;;;;;;;;;;5149618;27;20023;-60
2024/03/08 13:49:57;;;;;;;13.23;10.63;;;;;;;;;;5133527;27;20099;-60
2024/03/08 13:52:24;;;;;;;15.27;10.90;;;;;;;;;;5141053;27;20023;-58
2024/03/08 13:54:51;;;;;;;15.63;10.95;;;;;;;;;;5143836;27;20031;-62
2024/03/08 13:57:18;;;;;;;14.27;11.32;;;;;;;;;;5145482;27;20027;-62
2024/03/08 13:59:44;;;;;;;15.05;10.98;;;;;;;;;;5152896;27;20175;-63
2024/03/08 14:02:13;;;;;;;15.93;11.48;;;;;;;;;;5141196;27;20026;-51
2024/03/08 14:04:41;;;;;;;15.52;10.60;;;;;;;;;;5149363;27;20035;-51
2024/03/08 14:07:08;;;;;;;14.60;10.50;;;;;;;;;;5147655;27;20056;-59
2024/03/08 14:09:52;;;;;;;12.93;9.85;;;;;;;;;;5142213;27;20026;-54
2024/03/08 14:12:19;;;;;;;13.60;10.50;;;;;;;;;;5127107;27;20039;-53
2024/03/08 14:14:45;;;;;;;16.83;10.75;;;;;;;;;;5153288;27;20109;-60
2024/03/08 14:17:16;;;;;;;13.95;10.50;;;;;;;;;;5127130;27;20018;-62
2024/03/08 14:19:43;;;;;;;14.95;10.48;;;;;;;;;;5154610;27;20019;-63
2024/03/08 14:22:13;;;;;;;20.08;10.32;;;;;;;;;;5149447;27;20023;-67
2024/03/08 14:24:39;;;;;;;14.98;10.82;;;;;;;;;;5130045;27;20041;-64
2024/03/08 14:27:08;;;;;;;15.77;10.23;;;;;;;;;;5150740;27;20019;-68
2024/03/08 14:29:40;;;;;;;14.02;10.50;;;;;;;;;;5140457;27;20499;-65
2024/03/08 14:32:06;;;;;;;13.60;9.80;;;;;;;;;;5153036;27;20813;-66
2024/03/08 14:34:35;;;;;;;13.63;10.30;;;;;;;;;;5152630;27;20045;-63
2024/03/08 14:37:05;;;;;;;14.80;9.90;;;;;;;;;;5135448;27;20479;-54
2024/03/08 14:39:33;;;;;;;14.77;10.73;;;;;;;;;;5141560;27;20055;-61
2024/03/08 14:41:59;;;;;;;11.05;9.85;;;;;;;;;;5155130;27;20475;-59
2024/03/08 14:44:26;;;;;;;15.70;9.85;;;;;;;;;;5151216;27;20072;-61
2024/03/08 14:46:58;;;;;;;14.13;10.27;;;;;;;;;;5133953;27;20059;-58